Time;durP1;ratioP1;P1;durP2;ratioP2;P2;SDS_P1;SDS_P2;PMS_P1;PMS_P2;Temp;Humidity;BMP_temperature;BMP_pressure;BME280_temperature;BME280_humidity;BME280_pressure;Samples;Min_cycle;Max_cycle;Signal;HPM_P1;HPM_P2
2021/04/02 00:01:50;;;;;;;20.25;9.57;;;8.80;99.90;;;;;;5070597;28;20032;-50
2021/04/02 00:04:15;;;;;;;18.25;9.25;;;8.80;99.90;;;;;;5071540;28;20082;-50
2021/04/02 00:06:41;;;;;;;17.30;9.18;;;8.80;99.90;;;;;;5072292;28;20408;-52
2021/04/02 00:09:06;;;;;;;26.13;10.27;;;8.80;99.90;;;;;;5071735;28;20034;-52
2021/04/02 00:11:32;;;;;;;16.83;9.55;;;8.80;99.90;;;;;;5077221;28;20033;-52
2021/04/02 00:13:58;;;;;;;16.52;10.10;;;8.80;99.90;;;;;;5075348;28;20107;-54
2021/04/02 00:16:23;;;;;;;16.48;9.70;;;8.80;99.90;;;;;;5070922;28;20067;-52
2021/04/02 00:18:49;;;;;;;20.77;9.25;;;8.90;99.90;;;;;;5071160;28;20025;-53
2021/04/02 00:21:15;;;;;;;21.83;9.90;;;9.00;99.90;;;;;;5075681;28;20058;-52
2021/04/02 00:23:42;;;;;;;20.48;10.00;;;9.00;99.90;;;;;;5071312;28;20032;-52
2021/04/02 00:26:13;;;;;;;22.67;9.75;;;9.00;99.90;;;;;;5071586;28;20016;-51
2021/04/02 00:28:39;;;;;;;16.48;9.25;;;9.00;99.90;;;;;;5072190;28;20036;-51
2021/04/02 00:31:04;;;;;;;14.73;9.45;;;9.00;99.90;;;;;;5073293;28;20028;-52
2021/04/02 00:33:32;;;;;;;17.25;9.52;;;9.10;99.90;;;;;;5072568;28;20025;-54
2021/04/02 00:36:00;;;;;;;18.35;9.40;;;9.10;99.90;;;;;;5064630;28;20514;-53
2021/04/02 00:38:26;;;;;;;17.85;9.88;;;9.10;99.90;;;;;;5059786;28;20073;-52
2021/04/02 00:40:55;;;;;;;16.65;9.90;;;9.10;99.90;;;;;;5069370;28;20028;-54
2021/04/02 00:43:30;;;;;;;16.40;9.38;;;9.10;99.90;;;;;;5069166;28;20035;-53
2021/04/02 00:45:56;;;;;;;16.45;8.38;;;9.10;99.90;;;;;;5073833;28;20107;-52
2021/04/02 00:48:21;;;;;;;17.92;9.45;;;9.10;99.90;;;;;;5078372;28;20074;-52
2021/04/02 00:50:58;;;;;;;15.70;9.88;;;9.10;99.90;;;;;;5070451;28;20506;-52
2021/04/02 00:53:26;;;;;;;16.33;9.27;;;9.10;99.90;;;;;;5064414;28;20071;-53
2021/04/02 00:55:53;;;;;;;20.13;9.52;;;9.10;99.90;;;;;;5068385;28;20037;-54
2021/04/02 00:58:24;;;;;;;17.70;8.70;;;9.20;99.90;;;;;;5070909;28;20543;-54
2021/04/02 01:00:51;;;;;;;14.18;8.98;;;9.20;99.90;;;;;;5074210;28;20133;-53
2021/04/02 01:03:19;;;;;;;20.85;10.07;;;9.20;99.90;;;;;;5070859;28;20025;-51
2021/04/02 01:05:48;;;;;;;17.48;9.75;;;9.20;99.90;;;;;;5075337;28;20518;-53
2021/04/02 01:08:26;;;;;;;20.13;10.20;;;9.10;99.90;;;;;;5070574;28;20104;-52
2021/04/02 01:10:54;;;;;;;18.55;10.75;;;9.00;99.90;;;;;;5070872;28;20024;-51
2021/04/02 01:13:31;;;;;;;19.67;10.18;;;9.00;99.90;;;;;;5070531;28;20016;-52
2021/04/02 01:16:09;;;;;;;16.05;9.35;;;9.00;99.90;;;;;;5072063;28;20039;-52
2021/04/02 01:18:50;;;;;;;20.63;9.82;;;8.80;99.90;;;;;;5070264;28;20021;-54
2021/04/02 01:21:27;;;;;;;20.85;10.82;;;8.60;99.90;;;;;;5070227;28;20486;-52
2021/04/02 01:24:10;;;;;;;24.45;10.30;;;8.50;99.90;;;;;;5067007;28;20093;-55
2021/04/02 01:26:54;;;;;;;21.38;11.00;;;8.50;99.90;;;;;;5067629;28;20027;-54
2021/04/02 01:29:40;;;;;;;22.00;10.90;;;8.50;99.90;;;;;;5071223;28;20502;-54
2021/04/02 01:32:09;;;;;;;25.42;11.40;;;8.40;99.90;;;;;;5076889;28;20036;-53
2021/04/02 01:34:37;;;;;;;23.60;11.07;;;8.40;99.90;;;;;;5072537;28;20024;-54
2021/04/02 01:37:12;;;;;;;21.05;10.43;;;8.30;99.90;;;;;;5071182;28;20104;-51
2021/04/02 01:43:05;;;;;;;22.40;10.35;;;8.20;99.90;;;;;;5066659;28;20132;-50
2021/04/02 01:45:31;;;;;;;23.83;10.25;;;8.10;99.90;;;;;;5070373;28;20487;-51
2021/04/02 01:48:00;;;;;;;26.55;11.50;;;8.10;99.90;;;;;;5070479;28;20031;-51
2021/04/02 01:50:26;;;;;;;27.98;9.73;;;8.00;99.90;;;;;;5073496;28;20546;-51
2021/04/02 01:52:52;;;;;;;18.02;9.82;;;8.00;99.90;;;;;;5073050;28;20143;-52
2021/04/02 01:55:18;;;;;;;24.85;11.45;;;7.90;99.90;;;;;;5071554;28;20106;-50
2021/04/02 01:57:47;;;;;;;18.00;9.82;;;7.90;99.90;;;;;;5073558;28;20129;-51
2021/04/02 02:00:23;;;;;;;23.23;10.70;;;7.80;99.90;;;;;;5071233;28;20402;-49
2021/04/02 02:02:51;;;;;;;30.80;11.88;;;7.80;99.90;;;;;;5070493;28;20020;-50
2021/04/02 02:05:17;;;;;;;24.50;10.45;;;7.80;99.90;;;;;;5070385;28;20032;-50
2021/04/02 02:07:44;;;;;;;22.33;10.40;;;7.70;99.90;;;;;;5065922;28;20024;-50
2021/04/02 02:10:12;;;;;;;25.00;11.35;;;7.70;99.90;;;;;;5073234;28;20032;-50
2021/04/02 02:12:42;;;;;;;26.50;11.45;;;7.60;99.90;;;;;;5068296;28;20028;-50
2021/04/02 02:15:11;;;;;;;22.45;10.30;;;7.60;99.90;;;;;;5069449;28;20028;-50
2021/04/02 02:17:38;;;;;;;24.40;11.10;;;7.50;99.90;;;;;;5069869;28;20575;-51
2021/04/02 02:20:10;;;;;;;22.13;11.45;;;7.50;99.90;;;;;;5071026;28;20037;-52
2021/04/02 02:22:38;;;;;;;27.67;12.18;;;7.50;99.90;;;;;;5069504;28;20494;-50
2021/04/02 02:25:06;;;;;;;23.48;11.18;;;7.40;99.90;;;;;;5068245;28;20032;-51
2021/04/02 02:27:33;;;;;;;22.92;11.15;;;7.40;99.90;;;;;;5070833;28;20387;-52
2021/04/02 02:29:59;;;;;;;29.48;11.63;;;7.40;99.90;;;;;;5071987;28;20035;-53
2021/04/02 02:32:25;;;;;;;26.05;12.15;;;7.40;99.90;;;;;;5070022;28;20020;-51
2021/04/02 02:34:51;;;;;;;23.27;12.38;;;7.40;99.90;;;;;;5068735;28;20050;-53
2021/04/02 02:37:17;;;;;;;26.10;12.35;;;7.30;99.90;;;;;;5069402;28;20021;-50
2021/04/02 02:39:43;;;;;;;30.13;13.23;;;7.30;99.90;;;;;;5072827;28;20021;-54
2021/04/02 02:42:09;;;;;;;24.67;13.15;;;7.30;99.90;;;;;;5069513;28;20028;-54
2021/04/02 02:44:36;;;;;;;26.80;14.32;;;7.30;99.90;;;;;;5077585;28;20035;-52
2021/04/02 02:47:07;;;;;;;23.55;12.85;;;7.30;99.90;;;;;;5072902;28;20390;-52
2021/04/02 02:49:33;;;;;;;30.10;14.63;;;7.30;99.90;;;;;;5068379;28;20032;-52
2021/04/02 02:52:00;;;;;;;25.02;14.35;;;7.30;99.90;;;;;;5075430;28;20561;-53
2021/04/02 02:54:28;;;;;;;27.73;14.63;;;7.40;99.90;;;;;;5068935;28;20283;-50
2021/04/02 02:56:56;;;;;;;27.45;15.32;;;7.40;99.90;;;;;;5069521;28;20040;-50
2021/04/02 02:59:25;;;;;;;25.15;14.50;;;7.40;99.90;;;;;;5075265;28;20028;-51
2021/04/02 03:01:53;;;;;;;26.58;14.32;;;7.50;99.90;;;;;;5072410;28;20067;-50
2021/04/02 03:04:20;;;;;;;35.35;18.48;;;7.50;99.90;;;;;;5072641;28;20020;-50
2021/04/02 03:06:47;;;;;;;27.13;15.52;;;7.60;99.90;;;;;;5071947;28;20025;-51
2021/04/02 03:09:16;;;;;;;28.52;14.80;;;7.60;99.90;;;;;;5071390;28;20024;-52
2021/04/02 03:11:43;;;;;;;33.22;15.52;;;7.50;99.90;;;;;;5071124;28;20020;-54
2021/04/02 03:14:18;;;;;;;26.48;13.80;;;7.50;99.90;;;;;;5073018;28;20102;-56
2021/04/02 03:16:47;;;;;;;26.65;15.00;;;7.50;99.90;;;;;;5072366;28;20032;-50
2021/04/02 03:19:16;;;;;;;26.10;14.75;;;7.50;99.90;;;;;;5077429;28;20479;-52
2021/04/02 03:21:44;;;;;;;29.42;14.68;;;7.50;99.90;;;;;;5072013;28;20107;-52
2021/04/02 03:24:11;;;;;;;28.13;13.90;;;7.60;99.90;;;;;;5071922;28;20097;-56
2021/04/02 03:26:38;;;;;;;25.27;14.65;;;7.60;99.90;;;;;;5074644;28;20024;-52
2021/04/02 03:29:05;;;;;;;25.30;13.60;;;7.60;99.90;;;;;;5072283;28;20548;-54
2021/04/02 03:31:35;;;;;;;26.35;14.23;;;7.60;99.90;;;;;;5070918;28;20494;-52
2021/04/02 03:34:01;;;;;;;26.08;14.65;;;7.60;99.90;;;;;;5073036;28;20032;-52
2021/04/02 03:36:30;;;;;;;26.35;14.02;;;7.50;99.90;;;;;;5071405;28;20036;-51
2021/04/02 03:38:57;;;;;;;34.08;14.80;;;7.50;99.90;;;;;;5072142;28;20102;-53
2021/04/02 03:41:29;;;;;;;26.35;13.32;;;7.40;99.90;;;;;;5072403;28;20032;-54
2021/04/02 03:43:56;;;;;;;25.92;14.10;;;7.40;99.90;;;;;;5071997;28;20029;-53
2021/04/02 03:46:23;;;;;;;26.77;14.90;;;7.30;99.90;;;;;;5075724;28;20393;-51
2021/04/02 03:48:52;;;;;;;27.27;14.50;;;7.30;99.90;;;;;;5071994;28;20021;-50
2021/04/02 03:51:23;;;;;;;23.20;14.02;;;7.30;99.90;;;;;;5071506;28;20387;-51
2021/04/02 03:53:56;;;;;;;29.50;12.98;;;7.40;99.90;;;;;;5072130;28;20059;-52
2021/04/02 03:56:28;;;;;;;25.80;13.35;;;7.40;99.90;;;;;;5073685;28;20021;-50
2021/04/02 03:58:56;;;;;;;25.15;13.23;;;7.40;99.90;;;;;;5071965;28;20036;-53
2021/04/02 04:01:24;;;;;;;23.17;13.65;;;7.40;99.90;;;;;;5072076;28;20050;-55
2021/04/02 04:03:53;;;;;;;28.65;14.07;;;7.40;99.90;;;;;;5071915;28;20094;-51
2021/04/02 04:06:20;;;;;;;24.52;13.13;;;7.40;99.90;;;;;;5070669;28;20027;-51
2021/04/02 04:08:50;;;;;;;29.45;14.50;;;7.30;99.90;;;;;;5071607;28;20012;-53
2021/04/02 04:11:17;;;;;;;30.30;14.73;;;7.30;99.90;;;;;;5070258;28;20024;-54
2021/04/02 04:13:47;;;;;;;23.38;15.07;;;7.30;99.90;;;;;;5073374;28;20012;-52
2021/04/02 04:16:15;;;;;;;25.23;14.15;;;7.30;99.90;;;;;;5071833;28;20060;-55
2021/04/02 04:18:44;;;;;;;25.30;13.60;;;7.20;99.90;;;;;;5070773;28;20025;-54
2021/04/02 04:21:11;;;;;;;31.98;14.82;;;7.20;99.90;;;;;;5071098;28;20028;-51
2021/04/02 04:23:39;;;;;;;32.75;15.57;;;7.10;99.90;;;;;;5074268;28;20032;-52
2021/04/02 04:26:08;;;;;;;30.45;15.55;;;7.10;99.90;;;;;;5071237;28;20455;-51
2021/04/02 04:28:36;;;;;;;28.77;14.90;;;7.10;99.90;;;;;;5071438;28;20059;-51
2021/04/02 04:31:05;;;;;;;32.55;15.07;;;7.10;99.90;;;;;;5071163;28;20024;-50
2021/04/02 04:33:31;;;;;;;28.23;15.52;;;7.10;99.90;;;;;;5070749;28;20052;-54
2021/04/02 04:35:59;;;;;;;28.90;15.70;;;7.10;99.90;;;;;;5068437;28;20029;-52
2021/04/02 04:38:26;;;;;;;32.05;15.80;;;7.10;99.90;;;;;;5073086;28;20056;-50
2021/04/02 04:40:54;;;;;;;33.60;16.30;;;7.10;99.90;;;;;;5071050;28;20021;-51
2021/04/02 04:43:20;;;;;;;35.55;16.08;;;7.20;99.90;;;;;;5070923;28;20089;-51
2021/04/02 04:45:46;;;;;;;31.80;16.90;;;7.10;99.90;;;;;;5071726;28;20031;-50
2021/04/02 04:48:12;;;;;;;27.80;15.10;;;7.10;99.90;;;;;;5074002;28;20021;-51
2021/04/02 04:50:38;;;;;;;40.22;18.60;;;7.00;99.90;;;;;;5066228;28;20494;-50
2021/04/02 04:53:20;;;;;;;32.25;17.40;;;6.90;99.90;;;;;;5070229;28;20027;-52
2021/04/02 04:55:48;;;;;;;31.25;17.15;;;6.80;99.90;;;;;;5070573;28;20060;-51
2021/04/02 04:58:16;;;;;;;32.03;16.75;;;6.80;99.90;;;;;;5070678;28;20028;-53
2021/04/02 05:00:44;;;;;;;39.15;17.40;;;6.80;99.90;;;;;;5071482;28;20032;-51
2021/04/02 05:03:16;;;;;;;36.58;17.38;;;6.80;99.90;;;;;;5069510;28;20020;-50
2021/04/02 05:05:44;;;;;;;34.05;17.90;;;6.70;99.90;;;;;;5067666;28;20029;-54
2021/04/02 05:08:13;;;;;;;33.13;16.13;;;6.70;99.90;;;;;;5073079;28;20024;-50
2021/04/02 05:10:41;;;;;;;30.27;16.52;;;6.70;99.90;;;;;;5070140;28;20032;-54
2021/04/02 05:13:08;;;;;;;36.38;16.67;;;6.60;99.90;;;;;;5070440;28;20071;-50
2021/04/02 05:15:35;;;;;;;36.95;17.35;;;6.70;99.90;;;;;;5070157;28;20032;-54
2021/04/02 05:18:01;;;;;;;41.95;18.58;;;6.70;99.90;;;;;;5069955;28;20032;-54
2021/04/02 05:20:37;;;;;;;33.78;17.08;;;6.60;99.90;;;;;;5069132;28;20028;-52
2021/04/02 05:23:02;;;;;;;33.92;16.98;;;6.60;99.90;;;;;;5069691;28;20037;-50
2021/04/02 05:25:28;;;;;;;37.13;17.13;;;6.60;99.90;;;;;;5069137;28;20043;-53
2021/04/02 05:27:53;;;;;;;37.15;17.05;;;6.50;99.90;;;;;;5068993;28;20083;-52
2021/04/02 05:30:19;;;;;;;32.88;16.92;;;6.50;99.90;;;;;;5068313;28;20024;-53
2021/04/02 05:32:45;;;;;;;43.75;17.90;;;6.50;99.90;;;;;;5069390;28;20459;-50
2021/04/02 05:35:11;;;;;;;39.33;19.98;;;6.50;99.90;;;;;;5067697;28;20486;-51
2021/04/02 05:37:36;;;;;;;35.60;17.73;;;6.50;99.90;;;;;;5068949;28;20028;-51
2021/04/02 05:40:02;;;;;;;46.38;17.55;;;6.50;99.90;;;;;;5068548;28;20032;-54
2021/04/02 05:42:31;;;;;;;29.88;16.17;;;6.60;99.90;;;;;;5068792;28;20024;-52
2021/04/02 05:44:59;;;;;;;43.08;17.40;;;6.70;99.90;;;;;;5068526;28;20016;-52
2021/04/02 05:47:26;;;;;;;40.85;17.95;;;6.60;99.90;;;;;;5068456;28;20029;-54
2021/04/02 05:49:55;;;;;;;36.35;16.55;;;6.60;99.90;;;;;;5067954;28;20031;-54
2021/04/02 05:52:24;;;;;;;26.67;15.27;;;6.60;99.90;;;;;;5066108;28;20056;-53
2021/04/02 05:54:53;;;;;;;35.55;15.55;;;6.60;99.90;;;;;;5064710;28;20382;-51
2021/04/02 05:57:18;;;;;;;32.92;16.20;;;6.70;99.90;;;;;;5068991;28;20028;-52
2021/04/02 05:59:45;;;;;;;31.42;16.75;;;6.70;99.90;;;;;;5068516;28;20035;-51
2021/04/02 06:02:12;;;;;;;32.80;16.10;;;6.70;99.90;;;;;;5068670;28;20145;-52
2021/04/02 06:04:38;;;;;;;36.28;16.33;;;6.70;99.90;;;;;;5068875;28;20033;-51
2021/04/02 06:07:04;;;;;;;44.22;16.90;;;6.60;99.90;;;;;;5067634;28;20035;-52
2021/04/02 06:09:30;;;;;;;34.05;16.98;;;6.60;99.90;;;;;;5067020;28;20029;-53
2021/04/02 06:11:56;;;;;;;30.83;15.35;;;6.60;99.90;;;;;;5071114;28;20020;-55
2021/04/02 06:14:22;;;;;;;37.58;17.45;;;6.70;99.90;;;;;;5069277;28;20075;-55
2021/04/02 06:16:51;;;;;;;35.10;17.70;;;6.70;99.90;;;;;;5068308;28;20028;-52
2021/04/02 06:19:17;;;;;;;38.85;17.50;;;6.70;99.90;;;;;;5068597;28;20040;-50
2021/04/02 06:21:45;;;;;;;30.60;15.75;;;6.60;99.90;;;;;;5067536;28;20024;-51
2021/04/02 06:24:12;;;;;;;32.63;15.50;;;6.60;99.90;;;;;;5071262;28;20501;-50
2021/04/02 06:26:38;;;;;;;38.45;17.65;;;6.60;99.90;;;;;;5068943;28;20589;-51
2021/04/02 06:29:04;;;;;;;32.33;15.98;;;6.70;99.90;;;;;;5067860;28;20033;-50
2021/04/02 06:31:34;;;;;;;36.22;16.23;;;6.80;99.90;;;;;;5067695;28;20036;-53
2021/04/02 06:34:05;;;;;;;30.52;14.73;;;6.70;99.90;;;;;;5068785;28;20043;-54
2021/04/02 06:36:31;;;;;;;35.15;16.25;;;6.80;99.90;;;;;;5072053;28;20063;-52
2021/04/02 06:39:02;;;;;;;32.97;15.45;;;6.90;99.90;;;;;;5072401;28;20059;-54
2021/04/02 06:41:30;;;;;;;33.35;16.08;;;7.00;99.90;;;;;;5071633;28;20130;-52
2021/04/02 06:44:01;;;;;;;33.13;16.63;;;7.00;99.90;;;;;;5070291;28;20036;-50
2021/04/02 06:46:29;;;;;;;39.08;16.17;;;6.90;99.90;;;;;;5072330;28;20020;-51
2021/04/02 06:49:07;;;;;;;38.80;17.15;;;6.90;99.90;;;;;;5075894;28;20020;-51
2021/04/02 06:51:35;;;;;;;32.15;15.68;;;7.00;99.90;;;;;;5071290;28;20021;-55
2021/04/02 06:54:03;;;;;;;37.88;18.42;;;6.80;99.90;;;;;;5073708;28;20036;-50
2021/04/02 06:56:30;;;;;;;38.65;17.42;;;6.80;99.90;;;;;;5075794;28;20035;-51
2021/04/02 06:58:58;;;;;;;39.20;16.83;;;6.80;99.90;;;;;;5075630;28;20056;-51
2021/04/02 07:01:26;;;;;;;38.42;18.80;;;6.90;99.90;;;;;;5072715;28;20036;-53
2021/04/02 07:03:53;;;;;;;30.67;16.10;;;6.90;99.90;;;;;;5073339;28;20033;-51
2021/04/02 07:06:19;;;;;;;40.38;17.67;;;7.00;99.90;;;;;;5055886;28;20028;-51
2021/04/02 07:08:45;;;;;;;35.30;18.00;;;7.10;99.90;;;;;;5072875;28;20036;-51
2021/04/02 07:11:12;;;;;;;34.25;17.50;;;7.10;99.90;;;;;;5072426;28;20036;-52
2021/04/02 07:13:53;;;;;;;47.25;19.88;;;7.00;99.90;;;;;;5054386;28;20217;-51
2021/04/02 07:16:20;;;;;;;43.25;20.73;;;7.00;99.90;;;;;;5073400;28;20583;-52
2021/04/02 07:18:47;;;;;;;40.20;20.67;;;7.00;99.90;;;;;;5072270;28;20024;-52
2021/04/02 07:21:14;;;;;;;40.15;19.60;;;7.00;99.90;;;;;;5072096;28;20028;-54
2021/04/02 07:23:40;;;;;;;50.33;20.17;;;7.00;99.90;;;;;;5072254;28;20387;-55
2021/04/02 07:26:10;;;;;;;52.08;20.83;;;7.10;99.90;;;;;;5075165;28;20111;-55
2021/04/02 07:28:39;;;;;;;57.65;23.77;;;7.10;99.90;;;;;;5076574;28;20024;-54
2021/04/02 07:31:06;;;;;;;40.78;20.67;;;7.20;99.90;;;;;;5072264;28;20031;-51
2021/04/02 07:33:33;;;;;;;53.47;23.13;;;7.30;99.90;;;;;;5072311;28;20037;-50
2021/04/02 07:36:03;;;;;;;50.88;20.85;;;7.40;99.90;;;;;;5053522;28;20505;-51
2021/04/02 07:38:32;;;;;;;51.03;22.38;;;7.50;99.90;;;;;;5069658;28;20033;-51
2021/04/02 07:40:58;;;;;;;54.92;23.70;;;7.50;99.90;;;;;;5078455;28;20032;-51
2021/04/02 07:43:32;;;;;;;50.80;22.15;;;7.60;99.90;;;;;;5064026;28;20544;-52
2021/04/02 07:46:12;;;;;;;41.35;17.13;;;7.60;99.90;;;;;;5074230;28;20070;-54
2021/04/02 07:48:38;;;;;;;54.13;23.83;;;7.60;99.90;;;;;;5077533;28;20387;-51
2021/04/02 07:51:03;;;;;;;65.22;25.45;;;7.70;99.90;;;;;;5071705;28;20183;-52
2021/04/02 07:53:32;;;;;;;59.00;27.05;;;7.70;99.90;;;;;;5072006;28;20024;-53
2021/04/02 07:56:09;;;;;;;49.83;23.38;;;7.70;99.90;;;;;;5072684;28;20025;-53
2021/04/02 07:58:49;;;;;;;54.47;24.23;;;7.70;99.90;;;;;;5073229;28;20050;-52
2021/04/02 08:01:23;;;;;;;51.70;24.15;;;7.70;99.90;;;;;;5072466;28;20055;-51
2021/04/02 08:03:50;;;;;;;34.47;16.95;;;7.80;99.90;;;;;;5072671;28;20055;-51
2021/04/02 08:06:38;;;;;;;52.75;21.42;;;7.80;99.90;;;;;;5072299;28;20040;-50
2021/04/02 08:09:07;;;;;;;48.45;21.80;;;7.80;99.90;;;;;;5070937;28;20477;-50
2021/04/02 08:11:45;;;;;;;48.08;23.75;;;7.80;99.90;;;;;;5071821;28;20040;-51
2021/04/02 08:14:13;;;;;;;55.38;22.73;;;7.70;99.90;;;;;;5073829;28;20021;-53
2021/04/02 08:16:47;;;;;;;46.45;20.38;;;7.80;99.90;;;;;;5073980;28;20025;-51
2021/04/02 08:19:30;;;;;;;44.35;21.80;;;7.80;99.90;;;;;;5077526;28;20398;-56
2021/04/02 08:22:03;;;;;;;47.22;22.58;;;7.90;99.90;;;;;;5069170;28;20040;-59
2021/04/02 08:24:32;;;;;;;36.30;19.75;;;7.90;99.90;;;;;;5072370;28;20484;-55
2021/04/02 08:26:59;;;;;;;46.28;21.17;;;8.00;99.90;;;;;;5068901;28;20387;-56
2021/04/02 08:29:27;;;;;;;40.75;20.17;;;8.10;99.90;;;;;;5064833;28;20075;-55
2021/04/02 08:32:05;;;;;;;34.75;19.10;;;8.20;99.90;;;;;;5069317;28;20059;-55
2021/04/02 08:34:33;;;;;;;43.58;18.05;;;8.10;99.90;;;;;;5066233;28;20031;-52
2021/04/02 08:37:05;;;;;;;35.75;16.95;;;8.20;99.90;;;;;;5072072;28;20223;-56
2021/04/02 08:39:31;;;;;;;33.00;17.60;;;8.20;99.90;;;;;;5069709;28;20063;-55
2021/04/02 08:42:01;;;;;;;28.92;15.55;;;8.20;99.90;;;;;;5071249;28;20032;-52
2021/04/02 08:44:29;;;;;;;41.03;16.52;;;8.20;99.90;;;;;;5067442;28;20028;-51
2021/04/02 08:47:03;;;;;;;40.03;18.45;;;8.30;99.90;;;;;;5067876;28;20090;-56
2021/04/02 08:49:39;;;;;;;32.00;14.88;;;8.30;99.90;;;;;;5072086;28;20078;-53
2021/04/02 08:52:13;;;;;;;28.52;14.50;;;8.20;99.90;;;;;;5072504;28;20024;-53
2021/04/02 08:54:40;;;;;;;28.13;14.75;;;8.20;99.90;;;;;;5068586;28;20029;-53
2021/04/02 08:57:06;;;;;;;28.42;13.73;;;8.00;99.90;;;;;;5066154;28;20619;-54
2021/04/02 08:59:39;;;;;;;33.13;14.68;;;7.90;99.90;;;;;;5072468;28;20107;-56
2021/04/02 09:02:06;;;;;;;23.00;13.13;;;8.00;99.90;;;;;;5062312;28;20111;-54
2021/04/02 09:04:33;;;;;;;24.60;13.07;;;8.00;99.90;;;;;;5066750;28;20032;-54
2021/04/02 09:06:59;;;;;;;22.58;11.90;;;8.10;99.90;;;;;;5062478;28;20123;-56
2021/04/02 09:09:28;;;;;;;28.45;12.45;;;8.10;99.90;;;;;;5065603;28;20055;-57
2021/04/02 09:11:55;;;;;;;30.52;11.82;;;8.20;99.90;;;;;;5068292;28;20048;-56
2021/04/02 09:14:21;;;;;;;24.83;11.30;;;8.40;99.90;;;;;;5066140;28;20017;-54
2021/04/02 09:16:48;;;;;;;23.13;12.15;;;8.50;99.90;;;;;;5063489;28;20107;-57
2021/04/02 09:19:16;;;;;;;21.55;11.27;;;8.60;99.90;;;;;;5066613;28;20020;-53
2021/04/02 09:21:42;;;;;;;22.95;11.65;;;8.60;99.90;;;;;;5068119;28;20059;-54
2021/04/02 09:24:09;;;;;;;24.75;11.35;;;8.50;99.90;;;;;;5068448;28;20051;-57
2021/04/02 09:26:42;;;;;;;24.40;10.73;;;8.50;99.90;;;;;;5048275;28;20036;-54
2021/04/02 09:29:09;;;;;;;27.63;11.15;;;8.60;99.90;;;;;;5052088;28;20032;-54
2021/04/02 09:31:37;;;;;;;23.73;10.73;;;8.60;99.90;;;;;;5067400;28;20041;-57
2021/04/02 09:34:05;;;;;;;25.13;10.80;;;8.60;99.90;;;;;;5077200;28;20031;-60
2021/04/02 09:36:36;;;;;;;19.88;10.32;;;8.70;99.90;;;;;;5070725;28;20140;-59
2021/04/02 09:39:11;;;;;;;18.83;10.80;;;8.60;99.90;;;;;;5070632;28;20059;-60
2021/04/02 09:41:40;;;;;;;21.60;10.73;;;8.40;99.90;;;;;;5075108;28;20025;-57
2021/04/02 09:44:12;;;;;;;22.63;10.85;;;8.50;99.90;;;;;;5081514;28;20035;-54
2021/04/02 09:46:43;;;;;;;22.35;10.93;;;8.70;99.90;;;;;;5078738;28;20446;-56
2021/04/02 09:49:12;;;;;;;21.45;10.77;;;8.80;99.90;;;;;;5088700;28;20642;-55
2021/04/02 09:51:44;;;;;;;20.92;9.73;;;8.90;99.90;;;;;;5072757;28;20090;-57
2021/04/02 09:54:10;;;;;;;30.80;11.40;;;9.00;99.90;;;;;;5081795;28;20024;-59
2021/04/02 09:56:37;;;;;;;20.77;9.45;;;9.10;99.90;;;;;;5072795;28;20453;-58
2021/04/02 09:59:04;;;;;;;22.48;10.63;;;9.10;99.90;;;;;;5084663;28;20056;-57
2021/04/02 10:01:35;;;;;;;21.52;10.68;;;9.10;99.90;;;;;;5079748;28;21856;-57
2021/04/02 10:04:01;;;;;;;21.48;10.75;;;9.10;99.90;;;;;;5072389;28;20037;-56
2021/04/02 10:06:27;;;;;;;23.92;12.38;;;9.00;99.90;;;;;;5074251;28;20116;-53
2021/04/02 10:08:53;;;;;;;24.77;11.88;;;9.10;99.90;;;;;;5078550;28;20029;-59
2021/04/02 10:11:19;;;;;;;31.40;13.75;;;9.30;99.90;;;;;;5077572;28;20055;-56
2021/04/02 10:13:45;;;;;;;21.00;12.23;;;9.30;99.90;;;;;;5080166;28;20044;-57
2021/04/02 10:16:11;;;;;;;23.08;11.25;;;9.10;99.90;;;;;;5076799;28;20025;-56
2021/04/02 10:18:37;;;;;;;26.33;12.13;;;9.20;99.90;;;;;;5081267;28;20028;-55
2021/04/02 10:21:04;;;;;;;25.92;12.93;;;9.30;99.90;;;;;;5062120;28;20024;-59
2021/04/02 10:23:30;;;;;;;25.70;12.55;;;9.00;99.90;;;;;;5078755;28;20039;-57
2021/04/02 10:25:56;;;;;;;28.00;13.65;;;9.00;99.90;;;;;;5083078;28;20893;-58
2021/04/02 10:28:23;;;;;;;31.75;15.98;;;9.10;99.90;;;;;;5082563;28;20029;-55
2021/04/02 10:30:52;;;;;;;29.52;15.82;;;9.20;99.90;;;;;;5079952;28;20039;-57
2021/04/02 10:33:18;;;;;;;34.28;16.92;;;9.30;99.90;;;;;;5079354;28;20040;-56
2021/04/02 10:35:44;;;;;;;32.22;15.40;;;9.30;99.90;;;;;;5077765;28;20479;-60
2021/04/02 10:38:10;;;;;;;26.55;14.32;;;9.40;99.90;;;;;;5080896;28;20047;-57
2021/04/02 10:40:36;;;;;;;21.73;10.55;;;9.50;99.90;;;;;;5080524;28;20047;-56
2021/04/02 10:43:02;;;;;;;17.35;8.98;;;9.40;99.90;;;;;;5079885;28;20588;-56
2021/04/02 10:45:28;;;;;;;16.33;8.75;;;9.60;99.90;;;;;;5082183;28;20074;-57
2021/04/02 10:47:53;;;;;;;15.95;8.65;;;9.80;99.90;;;;;;5081498;28;20051;-59
2021/04/02 10:50:19;;;;;;;20.90;8.82;;;9.90;99.90;;;;;;5079024;28;20767;-59
2021/04/02 10:52:45;;;;;;;19.55;8.55;;;9.70;99.90;;;;;;5081978;28;20030;-59
2021/04/02 10:55:12;;;;;;;21.33;9.77;;;9.60;99.90;;;;;;5073669;28;20031;-59
2021/04/02 10:57:38;;;;;;;16.20;9.38;;;9.40;99.90;;;;;;5080808;28;20025;-54
2021/04/02 11:00:06;;;;;;;16.13;9.32;;;9.30;99.90;;;;;;5081895;28;20029;-55
2021/04/02 11:02:31;;;;;;;14.13;8.60;;;9.30;99.90;;;;;;5077974;28;20024;-56
2021/04/02 11:04:59;;;;;;;20.20;8.88;;;9.40;99.90;;;;;;5081022;28;20041;-54
2021/04/02 11:07:25;;;;;;;17.15;9.77;;;9.20;99.90;;;;;;5082207;28;20104;-58
2021/04/02 11:09:51;;;;;;;16.63;9.13;;;9.20;99.90;;;;;;5088573;28;20176;-54
2021/04/02 11:12:17;;;;;;;15.98;8.70;;;9.30;99.90;;;;;;5084489;28;20031;-57
2021/04/02 11:14:42;;;;;;;22.55;9.00;;;9.40;99.90;;;;;;5084174;28;20107;-56
2021/04/02 11:17:08;;;;;;;20.98;9.23;;;9.50;99.90;;;;;;5081708;28;20041;-56
2021/04/02 11:19:34;;;;;;;18.92;8.35;;;9.60;99.90;;;;;;5079923;28;20044;-56
2021/04/02 11:21:59;;;;;;;21.83;8.18;;;9.60;99.90;;;;;;5081625;28;20043;-53
2021/04/02 11:24:25;;;;;;;15.35;7.68;;;9.70;99.90;;;;;;5084273;28;20028;-53
2021/04/02 11:26:50;;;;;;;18.95;8.63;;;9.80;99.90;;;;;;5080008;28;20035;-57
2021/04/02 11:29:16;;;;;;;13.23;7.28;;;9.90;99.90;;;;;;5078762;28;20119;-56
2021/04/02 11:31:42;;;;;;;17.90;7.32;;;10.10;99.90;;;;;;5083737;28;20017;-56
2021/04/02 11:34:07;;;;;;;14.90;7.43;;;9.90;99.90;;;;;;5076363;28;20021;-56
2021/04/02 11:36:33;;;;;;;15.88;7.47;;;9.80;99.90;;;;;;5080095;28;20028;-56
2021/04/02 11:38:58;;;;;;;16.30;7.35;;;10.00;99.90;;;;;;5084185;28;20021;-55
2021/04/02 11:41:24;;;;;;;14.68;6.78;;;10.10;99.90;;;;;;5081498;28;20405;-58
2021/04/02 11:43:50;;;;;;;15.10;6.80;;;10.10;99.90;;;;;;5082431;28;20025;-57
2021/04/02 11:46:16;;;;;;;14.15;6.70;;;10.00;99.90;;;;;;5083343;28;20025;-55
2021/04/02 11:48:41;;;;;;;17.63;7.15;;;9.70;99.90;;;;;;5075985;28;20027;-54
2021/04/02 11:51:07;;;;;;;13.50;7.35;;;9.70;99.90;;;;;;5083985;28;20028;-55
2021/04/02 11:53:32;;;;;;;13.25;7.00;;;10.00;99.90;;;;;;5086966;28;20056;-55
2021/04/02 11:55:58;;;;;;;13.75;6.45;;;10.00;99.90;;;;;;5077573;28;20394;-59
2021/04/02 11:58:25;;;;;;;15.52;7.32;;;10.20;99.90;;;;;;5079042;28;20850;-54
2021/04/02 12:00:51;;;;;;;16.33;7.68;;;10.30;99.90;;;;;;5078642;28;20035;-56
2021/04/02 12:03:17;;;;;;;17.33;8.68;;;10.10;99.90;;;;;;5080025;28;20483;-55
2021/04/02 12:05:42;;;;;;;18.80;10.68;;;10.00;99.90;;;;;;5080780;28;20039;-56
2021/04/02 12:08:08;;;;;;;24.08;11.38;;;9.90;99.90;;;;;;5079885;28;20032;-56
2021/04/02 12:10:34;;;;;;;32.75;12.70;;;9.80;99.90;;;;;;5079317;28;20039;-54
2021/04/02 12:12:59;;;;;;;25.98;13.10;;;9.90;99.90;;;;;;5078847;28;20008;-55
2021/04/02 12:15:25;;;;;;;29.25;14.70;;;9.80;99.90;;;;;;5083466;28;20034;-53
2021/04/02 12:17:50;;;;;;;40.25;17.35;;;9.70;99.90;;;;;;5078917;28;20028;-58
2021/04/02 12:20:17;;;;;;;43.55;23.40;;;9.70;99.90;;;;;;5079267;28;20021;-55
2021/04/02 12:22:43;;;;;;;56.03;29.50;;;9.30;99.90;;;;;;5074711;28;20367;-55
2021/04/02 12:25:12;;;;;;;71.20;35.90;;;9.20;99.90;;;;;;5080002;28;20100;-56
2021/04/02 12:27:38;;;;;;;79.25;40.17;;;9.10;99.90;;;;;;5077409;28;20037;-56
2021/04/02 12:30:06;;;;;;;77.68;40.67;;;9.00;99.90;;;;;;5079504;28;20016;-57
2021/04/02 12:32:31;;;;;;;86.55;43.65;;;8.90;99.90;;;;;;5078308;28;20024;-54
2021/04/02 12:34:57;;;;;;;86.80;45.85;;;8.70;99.90;;;;;;5074329;28;20078;-53
2021/04/02 12:37:22;;;;;;;89.00;44.28;;;8.70;99.90;;;;;;5071883;28;20067;-58
2021/04/02 12:39:48;;;;;;;99.88;46.33;;;8.70;99.90;;;;;;5072881;28;20044;-54
2021/04/02 12:42:13;;;;;;;100.95;45.35;;;8.80;99.90;;;;;;5080968;28;20036;-53
2021/04/02 12:44:39;;;;;;;98.10;49.30;;;8.80;99.90;;;;;;5079716;28;20042;-57
2021/04/02 12:47:05;;;;;;;86.25;43.08;;;8.70;99.90;;;;;;5074789;28;20461;-53